sensor_id;sensor_type;location;lat;lon;timestamp;pressure;altitude;pressure_sealevel;temperature;humidity
67545;BME280;54380;47.770;11.150;2024-03-07T00:00:05;95158.47;;;5.79;63.17
67545;BME280;54380;47.770;11.150;2024-03-07T00:02:40;95159.50;;;5.78;62.96
67545;BME280;54380;47.770;11.150;2024-03-07T00:05:07;95154.25;;;5.78;62.82
67545;BME280;54380;47.770;11.150;2024-03-07T00:07:34;95154.03;;;5.79;62.99
67545;BME280;54380;47.770;11.150;2024-03-07T00:10:01;95154.03;;;5.79;62.89
67545;BME280;54380;47.770;11.150;2024-03-07T00:12:31;95150.84;;;5.77;63.14
67545;BME280;54380;47.770;11.150;2024-03-07T00:14:59;95153.66;;;5.76;63.04
67545;BME280;54380;47.770;11.150;2024-03-07T00:17:26;95160.56;;;5.70;62.98
67545;BME280;54380;47.770;11.150;2024-03-07T00:19:53;95156.53;;;5.67;62.94
67545;BME280;54380;47.770;11.150;2024-03-07T00:22:19;95163.00;;;5.65;63.22
67545;BME280;54380;47.770;11.150;2024-03-07T00:24:46;95158.56;;;5.65;63.50
67545;BME280;54380;47.770;11.150;2024-03-07T00:27:14;95156.75;;;5.66;62.95
67545;BME280;54380;47.770;11.150;2024-03-07T00:29:42;95155.16;;;5.65;63.55
67545;BME280;54380;47.770;11.150;2024-03-07T00:32:09;95158.56;;;5.65;62.88
67545;BME280;54380;47.770;11.150;2024-03-07T00:34:39;95154.72;;;5.68;63.13
67545;BME280;54380;47.770;11.150;2024-03-07T00:37:06;95155.31;;;5.70;63.01
67545;BME280;54380;47.770;11.150;2024-03-07T00:39:33;95154.53;;;5.69;63.29
67545;BME280;54380;47.770;11.150;2024-03-07T00:42:00;95145.63;;;5.70;63.11
67545;BME280;54380;47.770;11.150;2024-03-07T00:44:28;95150.69;;;5.72;63.01
67545;BME280;54380;47.770;11.150;2024-03-07T00:46:56;95146.03;;;5.74;62.89
67545;BME280;54380;47.770;11.150;2024-03-07T00:49:23;95152.66;;;5.77;63.30
67545;BME280;54380;47.770;11.150;2024-03-07T00:51:50;95144.56;;;5.78;62.71
67545;BME280;54380;47.770;11.150;2024-03-07T00:54:17;95143.97;;;5.76;62.68
67545;BME280;54380;47.770;11.150;2024-03-07T00:56:44;95138.38;;;5.72;62.87
67545;BME280;54380;47.770;11.150;2024-03-07T00:59:11;95141.19;;;5.71;63.15
67545;BME280;54380;47.770;11.150;2024-03-07T01:01:38;95142.22;;;5.70;63.04
67545;BME280;54380;47.770;11.150;2024-03-07T01:04:09;95134.00;;;5.66;63.33
67545;BME280;54380;47.770;11.150;2024-03-07T01:06:36;95148.09;;;5.65;62.90
67545;BME280;54380;47.770;11.150;2024-03-07T01:09:02;95135.00;;;5.65;63.31
67545;BME280;54380;47.770;11.150;2024-03-07T01:11:29;95141.69;;;5.61;63.40
67545;BME280;54380;47.770;11.150;2024-03-07T01:13:56;95136.06;;;5.58;63.48
67545;BME280;54380;47.770;11.150;2024-03-07T01:16:23;95136.28;;;5.56;63.46
67545;BME280;54380;47.770;11.150;2024-03-07T01:18:49;95135.63;;;5.61;63.84
67545;BME280;54380;47.770;11.150;2024-03-07T01:21:17;95128.97;;;5.65;63.61
67545;BME280;54380;47.770;11.150;2024-03-07T01:23:44;95130.34;;;5.67;63.79
67545;BME280;54380;47.770;11.150;2024-03-07T01:26:11;95128.53;;;5.68;63.36
67545;BME280;54380;47.770;11.150;2024-03-07T01:28:38;95123.88;;;5.70;63.84
67545;BME280;54380;47.770;11.150;2024-03-07T01:31:05;95131.13;;;5.75;63.48
67545;BME280;54380;47.770;11.150;2024-03-07T01:33:32;95116.19;;;5.75;63.14
67545;BME280;54380;47.770;11.150;2024-03-07T01:35:59;95116.00;;;5.77;63.43
67545;BME280;54380;47.770;11.150;2024-03-07T01:38:27;95114.59;;;5.74;63.27
67545;BME280;54380;47.770;11.150;2024-03-07T01:40:54;95112.81;;;5.68;63.22
67545;BME280;54380;47.770;11.150;2024-03-07T01:43:21;95116.06;;;5.63;63.11
67545;BME280;54380;47.770;11.150;2024-03-07T01:45:49;95112.66;;;5.63;63.36
67545;BME280;54380;47.770;11.150;2024-03-07T01:48:25;95115.88;;;5.65;63.61
67545;BME280;54380;47.770;11.150;2024-03-07T01:50:53;95116.91;;;5.64;63.05
67545;BME280;54380;47.770;11.150;2024-03-07T01:53:20;95111.66;;;5.64;63.50
67545;BME280;54380;47.770;11.150;2024-03-07T01:55:48;95116.66;;;5.65;63.44
67545;BME280;54380;47.770;11.150;2024-03-07T01:58:18;95112.22;;;5.66;63.52
67545;BME280;54380;47.770;11.150;2024-03-07T02:00:46;95104.38;;;5.66;63.32
67545;BME280;54380;47.770;11.150;2024-03-07T02:03:13;95103.56;;;5.65;63.30
67545;BME280;54380;47.770;11.150;2024-03-07T02:05:40;95106.00;;;5.67;63.39
67545;BME280;54380;47.770;11.150;2024-03-07T02:08:07;95099.72;;;5.68;63.08
67545;BME280;54380;47.770;11.150;2024-03-07T02:10:34;95098.34;;;5.65;63.64
67545;BME280;54380;47.770;11.150;2024-03-07T02:13:02;95090.72;;;5.64;63.40
67545;BME280;54380;47.770;11.150;2024-03-07T02:15:29;95090.91;;;5.62;63.68
67545;BME280;54380;47.770;11.150;2024-03-07T02:17:56;95089.88;;;5.63;63.67
67545;BME280;54380;47.770;11.150;2024-03-07T02:20:24;95083.84;;;5.63;63.78
67545;BME280;54380;47.770;11.150;2024-03-07T02:22:52;95083.84;;;5.63;63.04
67545;BME280;54380;47.770;11.150;2024-03-07T02:25:19;95089.09;;;5.63;63.58
67545;BME280;54380;47.770;11.150;2024-03-07T02:27:46;95088.50;;;5.61;63.16
67545;BME280;54380;47.770;11.150;2024-03-07T02:30:13;95076.44;;;5.60;63.24
67545;BME280;54380;47.770;11.150;2024-03-07T02:32:41;95074.03;;;5.58;63.78
67545;BME280;54380;47.770;11.150;2024-03-07T02:35:08;95075.84;;;5.58;63.58
67545;BME280;54380;47.770;11.150;2024-03-07T02:37:35;95067.53;;;5.61;63.70
67545;BME280;54380;47.770;11.150;2024-03-07T02:40:04;95075.00;;;5.64;63.31
67545;BME280;54380;47.770;11.150;2024-03-07T02:42:32;95070.75;;;5.63;63.56
67545;BME280;54380;47.770;11.150;2024-03-07T02:44:58;95070.56;;;5.64;63.42
67545;BME280;54380;47.770;11.150;2024-03-07T02:47:25;95074.75;;;5.65;63.41
67545;BME280;54380;47.770;11.150;2024-03-07T02:49:52;95068.72;;;5.65;63.38
67545;BME280;54380;47.770;11.150;2024-03-07T02:52:19;95064.53;;;5.64;63.09
67545;BME280;54380;47.770;11.150;2024-03-07T02:54:46;95055.84;;;5.63;63.36
67545;BME280;54380;47.770;11.150;2024-03-07T02:57:15;95065.09;;;5.66;62.91
67545;BME280;54380;47.770;11.150;2024-03-07T02:59:42;95052.59;;;5.68;63.67
67545;BME280;54380;47.770;11.150;2024-03-07T03:02:09;95060.84;;;5.71;63.52
67545;BME280;54380;47.770;11.150;2024-03-07T03:04:35;95056.59;;;5.70;63.25
67545;BME280;54380;47.770;11.150;2024-03-07T03:07:02;95052.16;;;5.71;63.24
67545;BME280;54380;47.770;11.150;2024-03-07T03:09:29;95053.19;;;5.70;63.47
67545;BME280;54380;47.770;11.150;2024-03-07T03:11:55;95048.97;;;5.69;63.46
67545;BME280;54380;47.770;11.150;2024-03-07T03:14:23;95045.75;;;5.67;62.95
67545;BME280;54380;47.770;11.150;2024-03-07T03:16:50;95055.22;;;5.68;62.90
67545;BME280;54380;47.770;11.150;2024-03-07T03:19:17;95050.75;;;5.68;63.06
67545;BME280;54380;47.770;11.150;2024-03-07T03:21:43;95047.34;;;5.68;63.35
67545;BME280;54380;47.770;11.150;2024-03-07T03:24:10;95050.56;;;5.70;63.55
67545;BME280;54380;47.770;11.150;2024-03-07T03:26:37;95045.31;;;5.70;63.08
67545;BME280;54380;47.770;11.150;2024-03-07T03:29:04;95045.31;;;5.70;63.37
67545;BME280;54380;47.770;11.150;2024-03-07T03:31:32;95042.91;;;5.68;63.18
67545;BME280;54380;47.770;11.150;2024-03-07T03:33:58;95047.16;;;5.69;63.53
67545;BME280;54380;47.770;11.150;2024-03-07T03:36:25;95046.91;;;5.71;63.64
67545;BME280;54380;47.770;11.150;2024-03-07T03:38:53;95042.91;;;5.68;63.57
67545;BME280;54380;47.770;11.150;2024-03-07T03:41:20;95044.53;;;5.69;63.19
67545;BME280;54380;47.770;11.150;2024-03-07T03:43:47;95044.09;;;5.72;63.55
67545;BME280;54380;47.770;11.150;2024-03-07T03:46:14;95044.88;;;5.73;63.11
67545;BME280;54380;47.770;11.150;2024-03-07T03:48:42;95041.84;;;5.76;63.23
67545;BME280;54380;47.770;11.150;2024-03-07T03:51:09;95032.97;;;5.77;63.51
67545;BME280;54380;47.770;11.150;2024-03-07T03:53:36;95034.38;;;5.80;63.18
67545;BME280;54380;47.770;11.150;2024-03-07T03:56:04;95027.50;;;5.79;63.40
67545;BME280;54380;47.770;11.150;2024-03-07T03:58:33;95036.22;;;5.72;62.98
67545;BME280;54380;47.770;11.150;2024-03-07T04:01:01;95026.78;;;5.71;62.96
67545;BME280;54380;47.770;11.150;2024-03-07T04:03:28;95038.50;;;5.69;62.98
67545;BME280;54380;47.770;11.150;2024-03-07T04:05:56;95027.88;;;5.64;63.77
67545;BME280;54380;47.770;11.150;2024-03-07T04:08:23;95027.88;;;5.64;63.23
67545;BME280;54380;47.770;11.150;2024-03-07T04:10:50;95029.44;;;5.65;63.62
67545;BME280;54380;47.770;11.150;2024-03-07T04:13:17;95030.84;;;5.67;63.32
67545;BME280;54380;47.770;11.150;2024-03-07T04:15:43;95029.81;;;5.68;63.35
67545;BME280;54380;47.770;11.150;2024-03-07T04:18:11;95023.56;;;5.69;63.14
67545;BME280;54380;47.770;11.150;2024-03-07T04:20:38;95027.59;;;5.72;63.20
67545;BME280;54380;47.770;11.150;2024-03-07T04:23:07;95027.94;;;5.76;63.70
67545;BME280;54380;47.770;11.150;2024-03-07T04:25:38;95027.31;;;5.80;63.31
67545;BME280;54380;47.770;11.150;2024-03-07T04:28:05;95034.72;;;5.83;63.13
67545;BME280;54380;47.770;11.150;2024-03-07T04:30:32;95025.03;;;5.84;63.07
67545;BME280;54380;47.770;11.150;2024-03-07T04:32:58;95022.66;;;5.82;63.16
67545;BME280;54380;47.770;11.150;2024-03-07T04:35:26;95024.44;;;5.82;63.22
67545;BME280;54380;47.770;11.150;2024-03-07T04:37:52;95027.88;;;5.82;63.29
67545;BME280;54380;47.770;11.150;2024-03-07T04:40:21;95022.66;;;5.82;62.82
67545;BME280;54380;47.770;11.150;2024-03-07T04:42:49;95022.66;;;5.82;63.08
67545;BME280;54380;47.770;11.150;2024-03-07T04:45:16;95025.47;;;5.81;63.65
67545;BME280;54380;47.770;11.150;2024-03-07T04:47:44;95025.69;;;5.79;62.99
67545;BME280;54380;47.770;11.150;2024-03-07T04:50:12;95023.50;;;5.76;62.96
67545;BME280;54380;47.770;11.150;2024-03-07T04:52:40;95021.91;;;5.75;63.52
67545;BME280;54380;47.770;11.150;2024-03-07T04:55:08;95030.56;;;5.76;63.31
67545;BME280;54380;47.770;11.150;2024-03-07T04:57:36;95029.75;;;5.75;63.65
67545;BME280;54380;47.770;11.150;2024-03-07T05:00:04;95024.16;;;5.71;63.32
67545;BME280;54380;47.770;11.150;2024-03-07T05:02:31;95024.97;;;5.72;63.63
67545;BME280;54380;47.770;11.150;2024-03-07T05:04:58;95016.88;;;5.73;63.91
67545;BME280;54380;47.770;11.150;2024-03-07T05:07:25;95022.69;;;5.76;63.45
67545;BME280;54380;47.770;11.150;2024-03-07T05:09:53;95027.50;;;5.79;63.88
67545;BME280;54380;47.770;11.150;2024-03-07T05:12:19;95025.91;;;5.78;63.63
67545;BME280;54380;47.770;11.150;2024-03-07T05:14:47;95017.81;;;5.79;63.72
67545;BME280;54380;47.770;11.150;2024-03-07T05:17:14;95027.06;;;5.82;63.92
67545;BME280;54380;47.770;11.150;2024-03-07T05:19:41;95028.88;;;5.81;63.23
67545;BME280;54380;47.770;11.150;2024-03-07T05:22:08;95028.09;;;5.81;63.74
67545;BME280;54380;47.770;11.150;2024-03-07T05:24:40;95021.63;;;5.83;63.34
67545;BME280;54380;47.770;11.150;2024-03-07T05:27:09;95027.88;;;5.82;63.32
67545;BME280;54380;47.770;11.150;2024-03-07T05:29:39;95028.69;;;5.83;63.14
67545;BME280;54380;47.770;11.150;2024-03-07T05:32:21;95026.88;;;5.83;63.34
67545;BME280;54380;47.770;11.150;2024-03-07T05:34:50;95026.28;;;5.81;63.48
67545;BME280;54380;47.770;11.150;2024-03-07T05:37:16;95028.25;;;5.86;63.64
67545;BME280;54380;47.770;11.150;2024-03-07T05:39:43;95027.59;;;5.90;63.18
67545;BME280;54380;47.770;11.150;2024-03-07T05:42:10;95032.63;;;5.92;63.33
67545;BME280;54380;47.770;11.150;2024-03-07T05:44:40;95036.25;;;5.91;63.13
67545;BME280;54380;47.770;11.150;2024-03-07T05:47:09;95034.66;;;5.90;63.14
67545;BME280;54380;47.770;11.150;2024-03-07T05:49:37;95028.84;;;5.88;63.31
67545;BME280;54380;47.770;11.150;2024-03-07T05:52:04;95032.69;;;5.85;63.19
67545;BME280;54380;47.770;11.150;2024-03-07T05:54:32;95036.53;;;5.83;63.36
67545;BME280;54380;47.770;11.150;2024-03-07T05:56:59;95036.31;;;5.84;63.72
67545;BME280;54380;47.770;11.150;2024-03-07T05:59:29;95031.66;;;5.86;63.16
67545;BME280;54380;47.770;11.150;2024-03-07T06:01:58;95031.22;;;5.89;63.01
67545;BME280;54380;47.770;11.150;2024-03-07T06:04:25;95034.66;;;5.90;63.08
67545;BME280;54380;47.770;11.150;2024-03-07T06:06:53;95030.44;;;5.89;63.59
67545;BME280;54380;47.770;11.150;2024-03-07T06:09:20;95027.81;;;5.89;63.59
67545;BME280;54380;47.770;11.150;2024-03-07T06:11:50;95034.88;;;5.88;63.50
67545;BME280;54380;47.770;11.150;2024-03-07T06:14:17;95028.41;;;5.91;63.51
67545;BME280;54380;47.770;11.150;2024-03-07T06:16:44;95027.38;;;5.92;63.52
67545;BME280;54380;47.770;11.150;2024-03-07T06:19:11;95030.81;;;5.92;63.53
67545;BME280;54380;47.770;11.150;2024-03-07T06:21:40;95029.63;;;5.95;63.51
67545;BME280;54380;47.770;11.150;2024-03-07T06:24:09;95025.53;;;5.99;63.00
67545;BME280;54380;47.770;11.150;2024-03-07T06:26:38;95025.53;;;5.99;63.44
67545;BME280;54380;47.770;11.150;2024-03-07T06:29:25;95025.16;;;5.96;63.28
67545;BME280;54380;47.770;11.150;2024-03-07T06:31:55;95023.38;;;5.89;63.31
67545;BME280;54380;47.770;11.150;2024-03-07T06:34:22;95016.19;;;5.85;63.13
67545;BME280;54380;47.770;11.150;2024-03-07T06:36:49;95022.81;;;5.87;63.29
67545;BME280;54380;47.770;11.150;2024-03-07T06:39:17;95014.34;;;5.85;63.67
67545;BME280;54380;47.770;11.150;2024-03-07T06:41:47;95021.19;;;5.86;63.26
67545;BME280;54380;47.770;11.150;2024-03-07T06:44:14;95024.97;;;5.90;63.51
67545;BME280;54380;47.770;11.150;2024-03-07T06:46:41;95016.91;;;5.92;63.38
67545;BME280;54380;47.770;11.150;2024-03-07T06:49:07;95025.56;;;5.92;63.44
67545;BME280;54380;47.770;11.150;2024-03-07T06:51:36;95025.56;;;5.92;63.23
67545;BME280;54380;47.770;11.150;2024-03-07T06:54:03;95021.97;;;5.93;63.53
67545;BME280;54380;47.770;11.150;2024-03-07T06:56:31;95022.75;;;5.94;63.36
67545;BME280;54380;47.770;11.150;2024-03-07T06:58:58;95023.75;;;5.93;63.23
67545;BME280;54380;47.770;11.150;2024-03-07T07:01:25;95016.72;;;5.93;63.15
67545;BME280;54380;47.770;11.150;2024-03-07T07:03:52;95027.00;;;5.95;63.15
67545;BME280;54380;47.770;11.150;2024-03-07T07:06:21;95023.53;;;5.94;63.29
67545;BME280;54380;47.770;11.150;2024-03-07T07:08:48;95025.72;;;5.98;63.19
67545;BME280;54380;47.770;11.150;2024-03-07T07:11:16;95021.31;;;5.98;63.25
67545;BME280;54380;47.770;11.150;2024-03-07T07:13:44;95021.88;;;6.00;63.24
67545;BME280;54380;47.770;11.150;2024-03-07T07:16:13;95018.03;;;6.03;63.65
67545;BME280;54380;47.770;11.150;2024-03-07T07:18:39;95019.19;;;6.07;63.24
67545;BME280;54380;47.770;11.150;2024-03-07T07:21:07;95023.19;;;6.09;63.58
67545;BME280;54380;47.770;11.150;2024-03-07T07:23:37;95016.56;;;6.07;63.07
67545;BME280;54380;47.770;11.150;2024-03-07T07:26:04;95019.19;;;6.07;63.28
67545;BME280;54380;47.770;11.150;2024-03-07T07:28:32;95024.22;;;6.08;63.16
67545;BME280;54380;47.770;11.150;2024-03-07T07:31:01;95014.53;;;6.09;63.06
67545;BME280;54380;47.770;11.150;2024-03-07T07:33:28;95009.31;;;6.09;62.86
67545;BME280;54380;47.770;11.150;2024-03-07T07:35:55;95015.41;;;6.03;62.92
67545;BME280;54380;47.770;11.150;2024-03-07T07:38:22;95010.59;;;6.00;63.05
67545;BME280;54380;47.770;11.150;2024-03-07T07:40:49;95008.56;;;6.02;63.16
67545;BME280;54380;47.770;11.150;2024-03-07T07:43:17;95007.91;;;6.06;63.20
67545;BME280;54380;47.770;11.150;2024-03-07T07:46:00;95009.31;;;6.09;63.14
67545;BME280;54380;47.770;11.150;2024-03-07T07:48:27;95009.91;;;6.11;63.12
67545;BME280;54380;47.770;11.150;2024-03-07T07:50:54;95007.84;;;6.13;63.35
67545;BME280;54380;47.770;11.150;2024-03-07T07:53:21;95006.03;;;6.13;63.03
67545;BME280;54380;47.770;11.150;2024-03-07T07:55:48;95001.78;;;6.12;63.01
67545;BME280;54380;47.770;11.150;2024-03-07T07:58:15;95006.25;;;6.12;63.02
67545;BME280;54380;47.770;11.150;2024-03-07T08:00:42;95005.00;;;6.14;63.28
67545;BME280;54380;47.770;11.150;2024-03-07T08:03:12;95003.97;;;6.15;63.18
67545;BME280;54380;47.770;11.150;2024-03-07T08:05:40;95008.41;;;6.15;63.51
67545;BME280;54380;47.770;11.150;2024-03-07T08:08:09;95009.59;;;6.19;63.51
67545;BME280;54380;47.770;11.150;2024-03-07T08:10:38;95003.91;;;6.22;63.44
67545;BME280;54380;47.770;11.150;2024-03-07T08:13:09;95006.53;;;6.22;63.12
67545;BME280;54380;47.770;11.150;2024-03-07T08:15:37;95006.97;;;6.19;62.81
67545;BME280;54380;47.770;11.150;2024-03-07T08:18:04;95004.41;;;6.12;63.59
67545;BME280;54380;47.770;11.150;2024-03-07T08:20:38;95007.91;;;6.06;63.38
67545;BME280;54380;47.770;11.150;2024-03-07T08:23:07;95001.16;;;5.99;63.86
67545;BME280;54380;47.770;11.150;2024-03-07T08:25:34;95005.78;;;5.97;63.71
67545;BME280;54380;47.770;11.150;2024-03-07T08:28:01;95002.38;;;5.96;63.56
67545;BME280;54380;47.770;11.150;2024-03-07T08:30:27;95002.97;;;5.98;64.00
67545;BME280;54380;47.770;11.150;2024-03-07T08:32:56;95006.38;;;5.99;63.70
67545;BME280;54380;47.770;11.150;2024-03-07T08:35:24;95002.53;;;6.01;63.93
67545;BME280;54380;47.770;11.150;2024-03-07T08:37:53;95000.06;;;6.06;63.56
67545;BME280;54380;47.770;11.150;2024-03-07T08:40:22;94994.81;;;6.06;64.01
67545;BME280;54380;47.770;11.150;2024-03-07T08:42:55;94998.03;;;6.08;63.73
67545;BME280;54380;47.770;11.150;2024-03-07T08:45:23;94995.41;;;6.08;63.86
67545;BME280;54380;47.770;11.150;2024-03-07T08:47:51;94999.03;;;6.07;63.87
67545;BME280;54380;47.770;11.150;2024-03-07T08:50:18;94997.00;;;6.09;63.84
67545;BME280;54380;47.770;11.150;2024-03-07T08:52:46;95000.56;;;6.15;64.07
67545;BME280;54380;47.770;11.150;2024-03-07T08:55:19;94996.69;;;6.18;64.29
67545;BME280;54380;47.770;11.150;2024-03-07T08:57:46;95000.34;;;6.17;63.92
67545;BME280;54380;47.770;11.150;2024-03-07T09:00:16;94992.25;;;6.18;64.04
67545;BME280;54380;47.770;11.150;2024-03-07T09:02:50;94992.25;;;6.18;64.06
67545;BME280;54380;47.770;11.150;2024-03-07T09:05:20;95001.72;;;6.19;64.13
67545;BME280;54380;47.770;11.150;2024-03-07T09:07:49;95001.94;;;6.18;64.04
67545;BME280;54380;47.770;11.150;2024-03-07T09:10:18;94987.25;;;6.17;64.39
67545;BME280;54380;47.770;11.150;2024-03-07T09:12:46;94993.72;;;6.14;63.98
67545;BME280;54380;47.770;11.150;2024-03-07T09:15:15;94995.16;;;6.10;64.50
67545;BME280;54380;47.770;11.150;2024-03-07T09:17:43;94993.72;;;6.14;64.36
67545;BME280;54380;47.770;11.150;2024-03-07T09:20:14;94997.94;;;6.15;64.28
67545;BME280;54380;47.770;11.150;2024-03-07T09:22:42;95001.59;;;6.14;64.52
67545;BME280;54380;47.770;11.150;2024-03-07T09:25:09;94997.72;;;6.17;64.56
67545;BME280;54380;47.770;11.150;2024-03-07T09:27:38;94992.25;;;6.18;64.49
67545;BME280;54380;47.770;11.150;2024-03-07T09:30:07;94986.81;;;6.20;64.27
67545;BME280;54380;47.770;11.150;2024-03-07T09:32:39;94990.66;;;6.17;64.36
67545;BME280;54380;47.770;11.150;2024-03-07T09:35:07;94991.09;;;6.14;64.33
67545;BME280;54380;47.770;11.150;2024-03-07T09:37:39;94986.31;;;6.11;64.84
67545;BME280;54380;47.770;11.150;2024-03-07T09:40:07;94995.91;;;6.17;64.70
67545;BME280;54380;47.770;11.150;2024-03-07T09:42:41;94985.88;;;6.14;64.76
67545;BME280;54380;47.770;11.150;2024-03-07T09:45:13;94980.38;;;6.15;65.17
67545;BME280;54380;47.770;11.150;2024-03-07T09:47:42;94980.81;;;6.12;64.87
67545;BME280;54380;47.770;11.150;2024-03-07T09:50:10;94978.78;;;6.14;65.16
67545;BME280;54380;47.770;11.150;2024-03-07T09:52:38;94982.34;;;6.20;65.07
67545;BME280;54380;47.770;11.150;2024-03-07T09:55:07;94985.13;;;6.25;64.80
67545;BME280;54380;47.770;11.150;2024-03-07T09:57:35;94978.84;;;6.26;64.83
67545;BME280;54380;47.770;11.150;2024-03-07T10:00:05;94984.22;;;6.31;65.00
67545;BME280;54380;47.770;11.150;2024-03-07T10:02:39;94973.28;;;6.34;64.92
67545;BME280;54380;47.770;11.150;2024-03-07T10:05:09;94978.25;;;6.43;64.60
67545;BME280;54380;47.770;11.150;2024-03-07T10:07:42;94976.34;;;6.50;64.66
67545;BME280;54380;47.770;11.150;2024-03-07T10:10:09;94969.97;;;6.57;64.66
67545;BME280;54380;47.770;11.150;2024-03-07T10:12:38;94966.91;;;6.60;64.36
67545;BME280;54380;47.770;11.150;2024-03-07T10:15:07;94971.94;;;6.62;64.31
67545;BME280;54380;47.770;11.150;2024-03-07T10:17:39;94971.16;;;6.62;64.73
67545;BME280;54380;47.770;11.150;2024-03-07T10:20:14;94974.13;;;6.65;64.88
67545;BME280;54380;47.770;11.150;2024-03-07T10:22:41;94976.88;;;6.70;64.97
67545;BME280;54380;47.770;11.150;2024-03-07T10:25:08;94969.72;;;6.77;64.95
67545;BME280;54380;47.770;11.150;2024-03-07T10:27:36;94967.09;;;6.77;64.81
67545;BME280;54380;47.770;11.150;2024-03-07T10:30:07;94962.19;;;6.81;64.44
67545;BME280;54380;47.770;11.150;2024-03-07T10:32:34;94961.53;;;6.86;64.49
67545;BME280;54380;47.770;11.150;2024-03-07T10:35:03;94964.28;;;6.91;64.75
67545;BME280;54380;47.770;11.150;2024-03-07T10:37:31;94954.69;;;6.96;64.56
67545;BME280;54380;47.770;11.150;2024-03-07T10:40:03;94962.47;;;7.03;64.25
67545;BME280;54380;47.770;11.150;2024-03-07T10:42:45;94968.06;;;7.07;63.96
67545;BME280;54380;47.770;11.150;2024-03-07T10:45:17;94959.28;;;7.01;64.03
67545;BME280;54380;47.770;11.150;2024-03-07T10:47:45;94955.63;;;7.02;64.11
67545;BME280;54380;47.770;11.150;2024-03-07T10:50:20;94955.03;;;7.00;64.01
67545;BME280;54380;47.770;11.150;2024-03-07T10:52:58;94956.97;;;6.93;63.60
67545;BME280;54380;47.770;11.150;2024-03-07T10:55:30;94958.44;;;6.89;64.02
67545;BME280;54380;47.770;11.150;2024-03-07T10:58:09;94953.19;;;6.89;64.09
67545;BME280;54380;47.770;11.150;2024-03-07T11:00:43;94954.22;;;6.88;64.22
67545;BME280;54380;47.770;11.150;2024-03-07T11:03:14;94949.44;;;6.85;64.11
67545;BME280;54380;47.770;11.150;2024-03-07T11:05:42;94947.94;;;6.89;64.37
67545;BME280;54380;47.770;11.150;2024-03-07T11:08:10;94949.66;;;6.95;64.18
67545;BME280;54380;47.770;11.150;2024-03-07T11:10:42;94951.63;;;6.99;64.29
67545;BME280;54380;47.770;11.150;2024-03-07T11:13:11;94951.75;;;7.04;64.28
67545;BME280;54380;47.770;11.150;2024-03-07T11:15:43;94946.50;;;7.04;64.07
67545;BME280;54380;47.770;11.150;2024-03-07T11:18:11;94943.28;;;7.02;64.11
67545;BME280;54380;47.770;11.150;2024-03-07T11:20:40;94942.03;;;7.05;64.44
67545;BME280;54380;47.770;11.150;2024-03-07T11:23:27;94939.19;;;7.07;63.88
67545;BME280;54380;47.770;11.150;2024-03-07T11:26:09;94940.78;;;7.08;64.00
67545;BME280;54380;47.770;11.150;2024-03-07T11:28:38;94939.78;;;7.09;64.24
67545;BME280;54380;47.770;11.150;2024-03-07T11:31:14;94938.84;;;7.15;63.71
67545;BME280;54380;47.770;11.150;2024-03-07T11:33:41;94924.69;;;7.16;63.81
67545;BME280;54380;47.770;11.150;2024-03-07T11:36:11;94921.41;;;7.20;64.09
67545;BME280;54380;47.770;11.150;2024-03-07T11:38:44;94926.66;;;7.20;63.53
67545;BME280;54380;47.770;11.150;2024-03-07T11:41:12;94924.72;;;7.28;63.98
67545;BME280;54380;47.770;11.150;2024-03-07T11:43:40;94913.88;;;7.36;63.64
67545;BME280;54380;47.770;11.150;2024-03-07T11:46:09;94913.66;;;7.37;63.66
67545;BME280;54380;47.770;11.150;2024-03-07T11:48:40;94912.72;;;7.43;63.61
67545;BME280;54380;47.770;11.150;2024-03-07T11:51:12;94911.81;;;7.50;63.71
67545;BME280;54380;47.770;11.150;2024-03-07T11:53:39;94906.34;;;7.51;63.37
67545;BME280;54380;47.770;11.150;2024-03-07T11:56:08;94905.88;;;7.54;63.34
67545;BME280;54380;47.770;11.150;2024-03-07T11:58:38;94902.31;;;7.60;62.92
67545;BME280;54380;47.770;11.150;2024-03-07T12:01:07;94893.63;;;7.60;62.83
67545;BME280;54380;47.770;11.150;2024-03-07T12:03:41;94896.72;;;7.57;63.18
67545;BME280;54380;47.770;11.150;2024-03-07T12:06:09;94892.06;;;7.59;62.86
67545;BME280;54380;47.770;11.150;2024-03-07T12:08:39;94889.75;;;7.62;63.02
67545;BME280;54380;47.770;11.150;2024-03-07T12:11:09;94888.81;;;7.68;62.81
67545;BME280;54380;47.770;11.150;2024-03-07T12:13:39;94884.38;;;7.69;62.62
67545;BME280;54380;47.770;11.150;2024-03-07T12:16:07;94882.19;;;7.78;62.71
67545;BME280;54380;47.770;11.150;2024-03-07T12:18:35;94870.16;;;7.82;62.59
67545;BME280;54380;47.770;11.150;2024-03-07T12:21:05;94875.53;;;7.87;62.62
67545;BME280;54380;47.770;11.150;2024-03-07T12:23:37;94873.81;;;7.93;62.68
67545;BME280;54380;47.770;11.150;2024-03-07T12:26:04;94870.00;;;8.00;62.54
67545;BME280;54380;47.770;11.150;2024-03-07T12:28:32;94872.72;;;8.05;61.87
67545;BME280;54380;47.770;11.150;2024-03-07T12:31:06;94871.72;;;8.06;61.47
67545;BME280;54380;47.770;11.150;2024-03-07T12:33:42;94868.59;;;8.09;61.46
67545;BME280;54380;47.770;11.150;2024-03-07T12:36:16;94865.88;;;8.04;61.03
67545;BME280;54380;47.770;11.150;2024-03-07T12:38:43;94861.09;;;8.01;61.62
67545;BME280;54380;47.770;11.150;2024-03-07T12:41:11;94866.34;;;8.01;61.27
67545;BME280;54380;47.770;11.150;2024-03-07T12:43:42;94860.44;;;7.94;61.34
67545;BME280;54380;47.770;11.150;2024-03-07T12:46:10;94854.84;;;7.90;61.36
67545;BME280;54380;47.770;11.150;2024-03-07T12:48:39;94861.47;;;7.93;61.15
67545;BME280;54380;47.770;11.150;2024-03-07T12:51:06;94848.88;;;7.95;61.11
67545;BME280;54380;47.770;11.150;2024-03-07T12:53:34;94850.59;;;8.01;61.36
67545;BME280;54380;47.770;11.150;2024-03-07T12:56:02;94847.88;;;8.13;60.12
67545;BME280;54380;47.770;11.150;2024-03-07T12:58:30;94840.34;;;8.17;59.57
67545;BME280;54380;47.770;11.150;2024-03-07T13:00:57;94849.06;;;8.05;60.16
67545;BME280;54380;47.770;11.150;2024-03-07T13:03:25;94844.63;;;8.06;60.62
67545;BME280;54380;47.770;11.150;2024-03-07T13:05:58;94847.94;;;8.01;60.38